DLH225 LKPR-LOWW
Flight info
| Callsign | DLH225 |
|---|---|
| Flight time | 0h 37m |
| Altitude | 17000 |
| Route | VOZ DCT LANUX LANUX7W |
| Aircraft | A388/J-SADE2E3FGHIJ3J4J5M1RWXY/LB1D1 |
Departure
| Time | 2026-04-22 18:16 |
|---|---|
| Airport | Václav Havel Airport Prague (LKPR) |
Arrival
| Time | 2026-04-22 18:54 |
|---|---|
| Airport | Vienna International Airport (LOWW) |
| Time | Latitude | Longitude | Altitude | Speed | Heading |
|---|---|---|---|---|---|
| 2026-04-22 17:41 | 50.10842 | 14.26433 | 1174 ft | 0 kts | 34° |
| 2026-04-22 17:57 | 50.10836 | 14.26428 | 1174 ft | 2 kts | 34° |
| 2026-04-22 17:57 | 50.10829 | 14.26419 | 1182 ft | 1 kts | 34° |
| 2026-04-22 17:57 | 50.10820 | 14.26409 | 1182 ft | 2 kts | 37° |
| 2026-04-22 17:58 | 50.10808 | 14.26398 | 1176 ft | 2 kts | 26° |
| 2026-04-22 17:58 | 50.10795 | 14.26392 | 1178 ft | 1 kts | 12° |
| 2026-04-22 17:58 | 50.10784 | 14.26392 | 1174 ft | 2 kts | 359° |
| 2026-04-22 17:58 | 50.10773 | 14.26395 | 1178 ft | 2 kts | 345° |
| 2026-04-22 17:59 | 50.10764 | 14.26403 | 1181 ft | 2 kts | 330° |
| 2026-04-22 17:59 | 50.10756 | 14.26413 | 1178 ft | 2 kts | 315° |
| 2026-04-22 17:59 | 50.10751 | 14.26427 | 1181 ft | 2 kts | 301° |
| 2026-04-22 17:59 | 50.10750 | 14.26429 | 1182 ft | 0 kts | 299° |
| 2026-04-22 18:03 | 50.10750 | 14.26427 | 1182 ft | 1 kts | 299° |
| 2026-04-22 18:04 | 50.10807 | 14.26305 | 1181 ft | 17 kts | 307° |
| 2026-04-22 18:04 | 50.10872 | 14.26162 | 1177 ft | 24 kts | 304° |
| 2026-04-22 18:04 | 50.10887 | 14.26110 | 1176 ft | 2 kts | 258° |
| 2026-04-22 18:04 | 50.10877 | 14.26082 | 1177 ft | 5 kts | 216° |
| 2026-04-22 18:05 | 50.10835 | 14.26035 | 1176 ft | 12 kts | 215° |
| 2026-04-22 18:05 | 50.10736 | 14.25930 | 1176 ft | 22 kts | 214° |
| 2026-04-22 18:05 | 50.10664 | 14.25853 | 1177 ft | 1 kts | 214° |
| 2026-04-22 18:05 | 50.10639 | 14.25825 | 1179 ft | 8 kts | 214° |
| 2026-04-22 18:06 | 50.10599 | 14.25808 | 1183 ft | 7 kts | 159° |
| 2026-04-22 18:06 | 50.10546 | 14.25878 | 1188 ft | 14 kts | 124° |
| 2026-04-22 18:06 | 50.10473 | 14.26033 | 1190 ft | 21 kts | 126° |
| 2026-04-22 18:06 | 50.10378 | 14.26228 | 1194 ft | 20 kts | 126° |
| 2026-04-22 18:07 | 50.10305 | 14.26381 | 1197 ft | 19 kts | 127° |
| 2026-04-22 18:07 | 50.10223 | 14.26551 | 1200 ft | 21 kts | 127° |
| 2026-04-22 18:07 | 50.10128 | 14.26747 | 1203 ft | 24 kts | 127° |
| 2026-04-22 18:07 | 50.10026 | 14.26959 | 1208 ft | 25 kts | 127° |
| 2026-04-22 18:08 | 50.09929 | 14.27160 | 1211 ft | 27 kts | 127° |
| 2026-04-22 18:08 | 50.09805 | 14.27388 | 1210 ft | 28 kts | 134° |
| 2026-04-22 18:08 | 50.09703 | 14.27548 | 1212 ft | 21 kts | 136° |
| 2026-04-22 18:08 | 50.09591 | 14.27715 | 1213 ft | 24 kts | 136° |
| 2026-04-22 18:09 | 50.09474 | 14.27898 | 1220 ft | 24 kts | 135° |
| 2026-04-22 18:09 | 50.09352 | 14.28084 | 1226 ft | 25 kts | 135° |
| 2026-04-22 18:09 | 50.09249 | 14.28245 | 1231 ft | 15 kts | 137° |
| 2026-04-22 18:09 | 50.09174 | 14.28277 | 1246 ft | 12 kts | 193° |
| 2026-04-22 18:10 | 50.09156 | 14.28269 | 1239 ft | 0 kts | 199° |
| 2026-04-22 18:14 | 50.09155 | 14.28269 | 1239 ft | 2 kts | 200° |
| 2026-04-22 18:14 | 50.09115 | 14.28210 | 1253 ft | 16 kts | 231° |
| 2026-04-22 18:14 | 50.09110 | 14.28044 | 1241 ft | 16 kts | 311° |
| 2026-04-22 18:14 | 50.09151 | 14.27949 | 1251 ft | 0 kts | 305° |
| 2026-04-22 18:15 | 50.09175 | 14.27897 | 1250 ft | 34 kts | 306° |
| 2026-04-22 18:15 | 50.09467 | 14.27298 | 1221 ft | 112 kts | 307° |
| 2026-04-22 18:15 | 50.09957 | 14.26282 | 1223 ft | 157 kts | 308° |
| 2026-04-22 18:16 | 50.10692 | 14.24738 | 1549 ft | 184 kts | 308° |
| 2026-04-22 18:16 | 50.11535 | 14.22945 | 1939 ft | 218 kts | 307° |
| 2026-04-22 18:16 | 50.12392 | 14.21068 | 2146 ft | 208 kts | 308° |
| 2026-04-22 18:16 | 50.13247 | 14.19320 | 2154 ft | 206 kts | 310° |
| 2026-04-22 18:17 | 50.14155 | 14.17507 | 2182 ft | 214 kts | 310° |
| 2026-04-22 18:17 | 50.15051 | 14.15705 | 2328 ft | 234 kts | 310° |
| 2026-04-22 18:17 | 50.16066 | 14.13628 | 3047 ft | 245 kts | 309° |
| 2026-04-22 18:17 | 50.17077 | 14.11528 | 4087 ft | 247 kts | 308° |
| 2026-04-22 18:18 | 50.17802 | 14.09057 | 4716 ft | 258 kts | 283° |
| 2026-04-22 18:18 | 50.17683 | 14.06267 | 5547 ft | 271 kts | 255° |
| 2026-04-22 18:18 | 50.16712 | 14.03699 | 6529 ft | 283 kts | 227° |
| 2026-04-22 18:18 | 50.15077 | 14.01982 | 7451 ft | 289 kts | 200° |
| 2026-04-22 18:19 | 50.13091 | 14.01496 | 8347 ft | 293 kts | 174° |
| 2026-04-22 18:19 | 50.11093 | 14.02393 | 9274 ft | 295 kts | 147° |
| 2026-04-22 18:19 | 50.09657 | 14.04281 | 10113 ft | 292 kts | 123° |
| 2026-04-22 18:19 | 50.08687 | 14.07057 | 10775 ft | 298 kts | 109° |
| 2026-04-22 18:20 | 50.07754 | 14.10098 | 11044 ft | 324 kts | 115° |
| 2026-04-22 18:20 | 50.06434 | 14.13098 | 11421 ft | 345 kts | 125° |
| 2026-04-22 18:20 | 50.04802 | 14.15877 | 12203 ft | 351 kts | 131° |
| 2026-04-22 18:20 | 50.03019 | 14.18525 | 13005 ft | 355 kts | 133° |
| 2026-04-22 18:21 | 50.01177 | 14.21117 | 13787 ft | 360 kts | 134° |
| 2026-04-22 18:21 | 49.99356 | 14.23644 | 14544 ft | 362 kts | 134° |
| 2026-04-22 18:21 | 49.97480 | 14.26245 | 15314 ft | 364 kts | 134° |
| 2026-04-22 18:21 | 49.95580 | 14.28891 | 16029 ft | 367 kts | 134° |
| 2026-04-22 18:22 | 49.93681 | 14.31542 | 16761 ft | 369 kts | 133° |
| 2026-04-22 18:22 | 49.91862 | 14.34085 | 17131 ft | 372 kts | 133° |
| 2026-04-22 18:22 | 49.89950 | 14.36755 | 17263 ft | 376 kts | 134° |
| 2026-04-22 18:22 | 49.87931 | 14.39580 | 17271 ft | 392 kts | 134° |
| 2026-04-22 18:23 | 49.85898 | 14.42414 | 17268 ft | 395 kts | 134° |
| 2026-04-22 18:23 | 49.83848 | 14.45263 | 17270 ft | 395 kts | 134° |
| 2026-04-22 18:23 | 49.81955 | 14.47889 | 17254 ft | 394 kts | 134° |
| 2026-04-22 18:24 | 49.77840 | 14.53594 | 17251 ft | 394 kts | 134° |
| 2026-04-22 18:24 | 49.75859 | 14.56339 | 17257 ft | 394 kts | 134° |
| 2026-04-22 18:24 | 49.72056 | 14.61590 | 17257 ft | 374 kts | 134° |
| 2026-04-22 18:25 | 49.70123 | 14.64255 | 17255 ft | 370 kts | 134° |
| 2026-04-22 18:25 | 49.68209 | 14.66897 | 17254 ft | 370 kts | 134° |
| 2026-04-22 18:25 | 49.66283 | 14.69556 | 17257 ft | 371 kts | 134° |
| 2026-04-22 18:26 | 49.62434 | 14.74854 | 17252 ft | 371 kts | 134° |
| 2026-04-22 18:26 | 49.61136 | 14.76638 | 17251 ft | 371 kts | 134° |
| 2026-04-22 18:26 | 49.58611 | 14.80102 | 17252 ft | 371 kts | 134° |
| 2026-04-22 18:26 | 49.56683 | 14.82742 | 17252 ft | 371 kts | 134° |
| 2026-04-22 18:27 | 49.54755 | 14.85380 | 17254 ft | 371 kts | 134° |
| 2026-04-22 18:27 | 49.53455 | 14.87154 | 17254 ft | 371 kts | 135° |
| 2026-04-22 18:27 | 49.50729 | 14.90387 | 17255 ft | 374 kts | 139° |
| 2026-04-22 18:27 | 49.48662 | 14.92790 | 17270 ft | 374 kts | 138° |
| 2026-04-22 18:28 | 49.46585 | 14.95216 | 17251 ft | 374 kts | 138° |
| 2026-04-22 18:28 | 49.44511 | 14.97636 | 17265 ft | 374 kts | 138° |
| 2026-04-22 18:28 | 49.43110 | 14.99270 | 17251 ft | 374 kts | 138° |
| 2026-04-22 18:28 | 49.41059 | 15.01646 | 17249 ft | 375 kts | 139° |
| 2026-04-22 18:29 | 49.38963 | 15.04020 | 17252 ft | 374 kts | 138° |
| 2026-04-22 18:29 | 49.36900 | 15.06463 | 17256 ft | 374 kts | 137° |
| 2026-04-22 18:29 | 49.34873 | 15.08860 | 17254 ft | 374 kts | 138° |
| 2026-04-22 18:29 | 49.32801 | 15.11279 | 17253 ft | 374 kts | 138° |
| 2026-04-22 18:30 | 49.30706 | 15.13696 | 17254 ft | 374 kts | 138° |
| 2026-04-22 18:30 | 49.26520 | 15.18484 | 17257 ft | 374 kts | 139° |
| 2026-04-22 18:30 | 49.24550 | 15.20728 | 17258 ft | 374 kts | 139° |
| 2026-04-22 18:31 | 49.22469 | 15.23097 | 17259 ft | 374 kts | 139° |
| 2026-04-22 18:31 | 49.20416 | 15.25430 | 17258 ft | 375 kts | 139° |
| 2026-04-22 18:31 | 49.18324 | 15.27806 | 17254 ft | 375 kts | 139° |
| 2026-04-22 18:31 | 49.16384 | 15.30007 | 17256 ft | 375 kts | 139° |
| 2026-04-22 18:32 | 49.14248 | 15.32428 | 17250 ft | 375 kts | 139° |
| 2026-04-22 18:32 | 49.12152 | 15.34801 | 17256 ft | 375 kts | 139° |
| 2026-04-22 18:32 | 49.10059 | 15.37169 | 17250 ft | 375 kts | 139° |
| 2026-04-22 18:32 | 49.07986 | 15.39511 | 17249 ft | 375 kts | 139° |
| 2026-04-22 18:33 | 49.05893 | 15.41874 | 17249 ft | 375 kts | 139° |
| 2026-04-22 18:33 | 49.03766 | 15.44272 | 17248 ft | 375 kts | 139° |
| 2026-04-22 18:33 | 49.01708 | 15.46590 | 17249 ft | 375 kts | 139° |
| 2026-04-22 18:33 | 48.99611 | 15.48948 | 17247 ft | 375 kts | 139° |
| 2026-04-22 18:34 | 48.97522 | 15.51297 | 17246 ft | 375 kts | 139° |
| 2026-04-22 18:34 | 48.95421 | 15.53656 | 17245 ft | 375 kts | 139° |
| 2026-04-22 18:34 | 48.93343 | 15.55987 | 17251 ft | 376 kts | 139° |
| 2026-04-22 18:34 | 48.91260 | 15.58321 | 17249 ft | 376 kts | 139° |
| 2026-04-22 18:35 | 48.89154 | 15.60678 | 17247 ft | 376 kts | 139° |
| 2026-04-22 18:35 | 48.87384 | 15.62657 | 17246 ft | 376 kts | 139° |
| 2026-04-22 18:35 | 48.85227 | 15.65065 | 17243 ft | 376 kts | 139° |
| 2026-04-22 18:35 | 48.83122 | 15.67413 | 17233 ft | 376 kts | 139° |
| 2026-04-22 18:36 | 48.81014 | 15.69762 | 17241 ft | 376 kts | 139° |
| 2026-04-22 18:36 | 48.79202 | 15.71780 | 17239 ft | 376 kts | 139° |
| 2026-04-22 18:36 | 48.77100 | 15.74118 | 17080 ft | 377 kts | 139° |
| 2026-04-22 18:36 | 48.74986 | 15.76466 | 16849 ft | 375 kts | 139° |
| 2026-04-22 18:37 | 48.72888 | 15.78795 | 16578 ft | 373 kts | 139° |
| 2026-04-22 18:37 | 48.70795 | 15.81115 | 16311 ft | 372 kts | 139° |
| 2026-04-22 18:37 | 48.68710 | 15.83426 | 15876 ft | 372 kts | 139° |
| 2026-04-22 18:37 | 48.66633 | 15.85723 | 15350 ft | 368 kts | 140° |
| 2026-04-22 18:38 | 48.64573 | 15.87999 | 14821 ft | 365 kts | 140° |
| 2026-04-22 18:38 | 48.62529 | 15.90256 | 14308 ft | 363 kts | 140° |
| 2026-04-22 18:38 | 48.60495 | 15.92499 | 13766 ft | 361 kts | 140° |
| 2026-04-22 18:39 | 48.56603 | 15.97072 | 12773 ft | 352 kts | 129° |
| 2026-04-22 18:39 | 48.55148 | 15.99647 | 12385 ft | 349 kts | 127° |
| 2026-04-22 18:39 | 48.53495 | 16.02345 | 12251 ft | 350 kts | 130° |
| 2026-04-22 18:39 | 48.51827 | 16.04983 | 12236 ft | 350 kts | 130° |
| 2026-04-22 18:40 | 48.50145 | 16.07644 | 12232 ft | 350 kts | 130° |
| 2026-04-22 18:40 | 48.48460 | 16.10303 | 12197 ft | 349 kts | 130° |
| 2026-04-22 18:40 | 48.46784 | 16.12945 | 11894 ft | 347 kts | 130° |
| 2026-04-22 18:40 | 48.45124 | 16.15570 | 11402 ft | 344 kts | 130° |
| 2026-04-22 18:41 | 48.43569 | 16.18048 | 10837 ft | 343 kts | 130° |
| 2026-04-22 18:41 | 48.41922 | 16.20695 | 10396 ft | 341 kts | 130° |
| 2026-04-22 18:41 | 48.40314 | 16.23289 | 10232 ft | 342 kts | 130° |
| 2026-04-22 18:41 | 48.38696 | 16.25903 | 10216 ft | 342 kts | 130° |
| 2026-04-22 18:42 | 48.37070 | 16.28532 | 10218 ft | 343 kts | 130° |
| 2026-04-22 18:42 | 48.35444 | 16.31162 | 10212 ft | 343 kts | 130° |
| 2026-04-22 18:42 | 48.33824 | 16.33777 | 10215 ft | 343 kts | 130° |
| 2026-04-22 18:42 | 48.32425 | 16.36032 | 10211 ft | 343 kts | 130° |
| 2026-04-22 18:43 | 48.30795 | 16.38665 | 10211 ft | 342 kts | 130° |
| 2026-04-22 18:43 | 48.29201 | 16.41231 | 10210 ft | 343 kts | 130° |
| 2026-04-22 18:43 | 48.27575 | 16.43846 | 10210 ft | 343 kts | 130° |
| 2026-04-22 18:43 | 48.25950 | 16.46458 | 10210 ft | 343 kts | 130° |
| 2026-04-22 18:44 | 48.24321 | 16.49077 | 10226 ft | 343 kts | 130° |
| 2026-04-22 18:44 | 48.22721 | 16.51657 | 10205 ft | 330 kts | 130° |
| 2026-04-22 18:44 | 48.21196 | 16.54108 | 10216 ft | 311 kts | 130° |
| 2026-04-22 18:44 | 48.19777 | 16.56373 | 10212 ft | 299 kts | 130° |
| 2026-04-22 18:45 | 48.18335 | 16.58671 | 10205 ft | 297 kts | 130° |
| 2026-04-22 18:45 | 48.16919 | 16.60930 | 10226 ft | 297 kts | 130° |
| 2026-04-22 18:45 | 48.15526 | 16.63149 | 10207 ft | 297 kts | 130° |
| 2026-04-22 18:45 | 48.14126 | 16.65375 | 10025 ft | 296 kts | 130° |
| 2026-04-22 18:46 | 48.12784 | 16.67509 | 9737 ft | 295 kts | 130° |
| 2026-04-22 18:46 | 48.11364 | 16.69737 | 9126 ft | 300 kts | 135° |
| 2026-04-22 18:46 | 48.09567 | 16.71384 | 8413 ft | 308 kts | 161° |
| 2026-04-22 18:46 | 48.07692 | 16.72105 | 8026 ft | 299 kts | 165° |
| 2026-04-22 18:47 | 48.05691 | 16.72828 | 7494 ft | 295 kts | 165° |
| 2026-04-22 18:47 | 48.03723 | 16.73545 | 6934 ft | 293 kts | 165° |
| 2026-04-22 18:47 | 48.01755 | 16.74264 | 6369 ft | 288 kts | 165° |
| 2026-04-22 18:47 | 47.99855 | 16.74958 | 5597 ft | 288 kts | 165° |
| 2026-04-22 18:48 | 47.97974 | 16.75603 | 5340 ft | 271 kts | 173° |
| 2026-04-22 18:48 | 47.96221 | 16.75382 | 5076 ft | 256 kts | 201° |
| 2026-04-22 18:48 | 47.94756 | 16.74015 | 4633 ft | 244 kts | 234° |
| 2026-04-22 18:48 | 47.94107 | 16.72389 | 4536 ft | 222 kts | 254° |
| 2026-04-22 18:49 | 47.93616 | 16.70426 | 4150 ft | 203 kts | 256° |
| 2026-04-22 18:49 | 47.93342 | 16.68439 | 3818 ft | 195 kts | 279° |
| 2026-04-22 18:49 | 47.93812 | 16.66575 | 3653 ft | 192 kts | 313° |
| 2026-04-22 18:49 | 47.94696 | 16.65462 | 3479 ft | 182 kts | 332° |
| 2026-04-22 18:50 | 47.95822 | 16.64702 | 3278 ft | 168 kts | 341° |
| 2026-04-22 18:50 | 47.96914 | 16.64178 | 3061 ft | 165 kts | 345° |
| 2026-04-22 18:50 | 47.97876 | 16.63769 | 2882 ft | 164 kts | 345° |
| 2026-04-22 18:50 | 47.98973 | 16.63304 | 2647 ft | 162 kts | 345° |
| 2026-04-22 18:51 | 47.99974 | 16.62881 | 2452 ft | 149 kts | 345° |
| 2026-04-22 18:51 | 48.00952 | 16.62470 | 2253 ft | 143 kts | 346° |
| 2026-04-22 18:51 | 48.01877 | 16.62080 | 2065 ft | 142 kts | 346° |
| 2026-04-22 18:51 | 48.02823 | 16.61681 | 1873 ft | 136 kts | 346° |
| 2026-04-22 18:52 | 48.03660 | 16.61326 | 1714 ft | 126 kts | 345° |
| 2026-04-22 18:52 | 48.04505 | 16.60971 | 1511 ft | 126 kts | 345° |
| 2026-04-22 18:52 | 48.05316 | 16.60629 | 1359 ft | 128 kts | 344° |
| 2026-04-22 18:52 | 48.06163 | 16.60268 | 1169 ft | 126 kts | 345° |
| 2026-04-22 18:53 | 48.07029 | 16.59897 | 1007 ft | 131 kts | 345° |
| 2026-04-22 18:53 | 48.07856 | 16.59551 | 836 ft | 127 kts | 344° |
| 2026-04-22 18:53 | 48.08698 | 16.59198 | 671 ft | 125 kts | 344° |
| 2026-04-22 18:53 | 48.09448 | 16.58881 | 634 ft | 86 kts | 345° |
| 2026-04-22 18:54 | 48.09804 | 16.58734 | 630 ft | 32 kts | 344° |
| 2026-04-22 18:54 | 48.09985 | 16.58631 | 631 ft | 25 kts | 323° |
| 2026-04-22 18:54 | 48.10072 | 16.58459 | 628 ft | 6 kts | 298° |
| 2026-04-22 18:54 | 48.10073 | 16.58458 | 628 ft | 0 kts | 298° |
| 2026-04-22 18:57 | 48.10073 | 16.58457 | 621 ft | 1 kts | 298° |
| 2026-04-22 18:57 | 48.10106 | 16.58376 | 633 ft | 16 kts | 306° |
| 2026-04-22 18:58 | 48.10202 | 16.58292 | 628 ft | 17 kts | 344° |
| 2026-04-22 18:58 | 48.10324 | 16.58239 | 627 ft | 20 kts | 344° |
| 2026-04-22 18:58 | 48.10359 | 16.58224 | 621 ft | 5 kts | 344° |
| 2026-04-22 18:58 | 48.10389 | 16.58211 | 626 ft | 0 kts | 344° |
| 2026-04-22 18:59 | 48.10392 | 16.58210 | 627 ft | 0 kts | 344° |
| 2026-04-22 19:00 | 48.10395 | 16.58208 | 628 ft | 2 kts | 344° |
| 2026-04-22 19:00 | 48.10452 | 16.58184 | 630 ft | 14 kts | 344° |
| 2026-04-22 19:00 | 48.10579 | 16.58130 | 626 ft | 18 kts | 344° |
| 2026-04-22 19:00 | 48.10705 | 16.58078 | 627 ft | 19 kts | 344° |
| 2026-04-22 19:01 | 48.10837 | 16.58022 | 625 ft | 20 kts | 344° |
| 2026-04-22 19:01 | 48.10966 | 16.57968 | 627 ft | 20 kts | 345° |
| 2026-04-22 19:01 | 48.11092 | 16.57891 | 621 ft | 19 kts | 307° |
| 2026-04-22 19:01 | 48.11150 | 16.57734 | 629 ft | 16 kts | 295° |
| 2026-04-22 19:02 | 48.11198 | 16.57581 | 631 ft | 17 kts | 295° |
| 2026-04-22 19:02 | 48.11248 | 16.57426 | 632 ft | 15 kts | 296° |
| 2026-04-22 19:02 | 48.11291 | 16.57293 | 633 ft | 16 kts | 296° |
| 2026-04-22 19:02 | 48.11319 | 16.57206 | 631 ft | 1 kts | 296° |
| 2026-04-22 19:03 | 48.11331 | 16.57170 | 633 ft | 6 kts | 296° |
| 2026-04-22 19:03 | 48.11356 | 16.57095 | 627 ft | 9 kts | 296° |
| 2026-04-22 19:03 | 48.11367 | 16.57064 | 632 ft | 1 kts | 298° |
| 2026-04-22 19:03 | 48.11380 | 16.57030 | 635 ft | 6 kts | 298° |
| 2026-04-22 19:04 | 48.11397 | 16.56982 | 633 ft | 0 kts | 298° |
| 2026-04-22 19:04 | 48.11398 | 16.56979 | 633 ft | 2 kts | 298° |
| 2026-04-22 19:04 | 48.11418 | 16.56929 | 628 ft | 5 kts | 330° |
| 2026-04-22 19:04 | 48.11461 | 16.56909 | 627 ft | 12 kts | 344° |
| 2026-04-22 19:05 | 48.11546 | 16.56946 | 629 ft | 15 kts | 47° |
| 2026-04-22 19:05 | 48.11619 | 16.57028 | 620 ft | 0 kts | 28° |